sensor_id;sensor_type;location;lat;lon;timestamp;P1;durP1;ratioP1;P2;durP2;ratioP2
45356;SDS011;31092;51.924;21.448;2023-03-23T00:02:26;9.68;;;4.80;;
45356;SDS011;31092;51.924;21.448;2023-03-23T00:04:53;9.82;;;4.40;;
45356;SDS011;31092;51.924;21.448;2023-03-23T00:07:22;6.00;;;3.92;;
45356;SDS011;31092;51.924;21.448;2023-03-23T00:09:52;8.02;;;3.60;;
45356;SDS011;31092;51.924;21.448;2023-03-23T00:12:22;12.75;;;5.75;;
45356;SDS011;31092;51.924;21.448;2023-03-23T00:14:54;9.20;;;4.32;;
45356;SDS011;31092;51.924;21.448;2023-03-23T00:17:20;9.65;;;4.18;;
45356;SDS011;31092;51.924;21.448;2023-03-23T00:19:46;14.10;;;5.47;;
45356;SDS011;31092;51.924;21.448;2023-03-23T00:22:13;11.45;;;5.57;;
45356;SDS011;31092;51.924;21.448;2023-03-23T00:24:40;6.15;;;3.35;;
45356;SDS011;31092;51.924;21.448;2023-03-23T00:27:06;8.27;;;4.72;;
45356;SDS011;31092;51.924;21.448;2023-03-23T00:29:33;10.48;;;3.08;;
45356;SDS011;31092;51.924;21.448;2023-03-23T00:32:00;6.78;;;4.05;;
45356;SDS011;31092;51.924;21.448;2023-03-23T00:34:26;7.68;;;3.95;;
45356;SDS011;31092;51.924;21.448;2023-03-23T00:36:57;4.65;;;3.28;;
45356;SDS011;31092;51.924;21.448;2023-03-23T00:39:23;6.88;;;4.35;;
45356;SDS011;31092;51.924;21.448;2023-03-23T00:41:52;12.50;;;5.00;;
45356;SDS011;31092;51.924;21.448;2023-03-23T00:44:18;14.90;;;5.75;;
45356;SDS011;31092;51.924;21.448;2023-03-23T00:46:44;11.40;;;5.60;;
45356;SDS011;31092;51.924;21.448;2023-03-23T00:49:14;8.32;;;4.03;;
45356;SDS011;31092;51.924;21.448;2023-03-23T00:51:42;12.40;;;5.45;;
45356;SDS011;31092;51.924;21.448;2023-03-23T00:54:08;6.13;;;3.80;;
45356;SDS011;31092;51.924;21.448;2023-03-23T00:56:34;11.00;;;5.15;;
45356;SDS011;31092;51.924;21.448;2023-03-23T00:59:01;15.50;;;5.50;;
45356;SDS011;31092;51.924;21.448;2023-03-23T01:01:27;9.68;;;4.88;;
45356;SDS011;31092;51.924;21.448;2023-03-23T01:03:52;11.77;;;4.78;;
45356;SDS011;31092;51.924;21.448;2023-03-23T01:06:26;10.00;;;3.95;;
45356;SDS011;31092;51.924;21.448;2023-03-23T01:08:56;10.23;;;4.07;;
45356;SDS011;31092;51.924;21.448;2023-03-23T01:11:23;10.50;;;4.72;;
45356;SDS011;31092;51.924;21.448;2023-03-23T01:13:49;8.73;;;4.82;;
45356;SDS011;31092;51.924;21.448;2023-03-23T01:16:15;7.30;;;3.78;;
45356;SDS011;31092;51.924;21.448;2023-03-23T01:18:40;11.32;;;4.22;;
45356;SDS011;31092;51.924;21.448;2023-03-23T01:21:07;8.10;;;5.07;;
45356;SDS011;31092;51.924;21.448;2023-03-23T01:23:35;15.85;;;6.40;;
45356;SDS011;31092;51.924;21.448;2023-03-23T01:26:04;9.38;;;4.22;;
45356;SDS011;31092;51.924;21.448;2023-03-23T01:28:30;9.40;;;4.63;;
45356;SDS011;31092;51.924;21.448;2023-03-23T01:31:00;7.25;;;4.40;;
45356;SDS011;31092;51.924;21.448;2023-03-23T01:33:31;11.43;;;4.95;;
45356;SDS011;31092;51.924;21.448;2023-03-23T01:35:57;8.30;;;5.00;;
45356;SDS011;31092;51.924;21.448;2023-03-23T01:38:27;10.10;;;3.70;;
45356;SDS011;31092;51.924;21.448;2023-03-23T01:40:52;14.65;;;5.30;;
45356;SDS011;31092;51.924;21.448;2023-03-23T01:43:18;13.55;;;5.60;;
45356;SDS011;31092;51.924;21.448;2023-03-23T01:45:43;10.55;;;5.20;;
45356;SDS011;31092;51.924;21.448;2023-03-23T01:50:45;16.88;;;5.40;;
45356;SDS011;31092;51.924;21.448;2023-03-23T01:53:37;5.97;;;3.90;;
45356;SDS011;31092;51.924;21.448;2023-03-23T01:56:11;10.43;;;5.18;;
45356;SDS011;31092;51.924;21.448;2023-03-23T01:58:39;12.15;;;4.82;;
45356;SDS011;31092;51.924;21.448;2023-03-23T02:01:06;6.63;;;4.13;;
45356;SDS011;31092;51.924;21.448;2023-03-23T02:06:03;4.15;;;3.65;;
45356;SDS011;31092;51.924;21.448;2023-03-23T02:08:29;11.00;;;5.53;;
45356;SDS011;31092;51.924;21.448;2023-03-23T02:11:00;7.35;;;3.90;;
45356;SDS011;31092;51.924;21.448;2023-03-23T02:13:26;9.63;;;5.70;;
45356;SDS011;31092;51.924;21.448;2023-03-23T02:18:56;6.82;;;4.32;;
45356;SDS011;31092;51.924;21.448;2023-03-23T02:27:26;11.32;;;4.25;;
45356;SDS011;31092;51.924;21.448;2023-03-23T02:35:28;6.60;;;4.28;;
45356;SDS011;31092;51.924;21.448;2023-03-23T02:38:02;5.85;;;3.67;;
45356;SDS011;31092;51.924;21.448;2023-03-23T02:40:36;6.30;;;4.47;;
45356;SDS011;31092;51.924;21.448;2023-03-23T02:43:10;9.88;;;5.15;;
45356;SDS011;31092;51.924;21.448;2023-03-23T02:45:39;7.25;;;3.88;;
45356;SDS011;31092;51.924;21.448;2023-03-23T02:48:08;9.15;;;4.93;;
45356;SDS011;31092;51.924;21.448;2023-03-23T02:50:36;9.40;;;3.88;;
45356;SDS011;31092;51.924;21.448;2023-03-23T02:53:04;10.52;;;5.30;;
45356;SDS011;31092;51.924;21.448;2023-03-23T02:55:34;8.18;;;3.33;;
45356;SDS011;31092;51.924;21.448;2023-03-23T02:58:05;6.75;;;3.92;;
45356;SDS011;31092;51.924;21.448;2023-03-23T03:00:31;9.57;;;4.63;;
45356;SDS011;31092;51.924;21.448;2023-03-23T03:02:56;6.20;;;3.47;;
45356;SDS011;31092;51.924;21.448;2023-03-23T03:13:23;11.65;;;4.15;;
45356;SDS011;31092;51.924;21.448;2023-03-23T03:16:18;7.45;;;4.32;;
45356;SDS011;31092;51.924;21.448;2023-03-23T03:21:37;9.70;;;4.70;;
45356;SDS011;31092;51.924;21.448;2023-03-23T03:24:07;6.35;;;4.15;;
45356;SDS011;31092;51.924;21.448;2023-03-23T03:26:36;8.10;;;5.05;;
45356;SDS011;31092;51.924;21.448;2023-03-23T03:29:04;12.02;;;4.47;;
45356;SDS011;31092;51.924;21.448;2023-03-23T03:31:38;7.20;;;3.47;;
45356;SDS011;31092;51.924;21.448;2023-03-23T03:34:10;12.15;;;2.95;;
45356;SDS011;31092;51.924;21.448;2023-03-23T03:36:36;8.82;;;4.88;;
45356;SDS011;31092;51.924;21.448;2023-03-23T03:39:06;4.95;;;3.35;;
45356;SDS011;31092;51.924;21.448;2023-03-23T03:41:34;8.70;;;3.92;;
45356;SDS011;31092;51.924;21.448;2023-03-23T03:44:01;8.75;;;3.72;;
45356;SDS011;31092;51.924;21.448;2023-03-23T03:46:27;11.32;;;3.92;;
45356;SDS011;31092;51.924;21.448;2023-03-23T03:48:55;8.40;;;4.50;;
45356;SDS011;31092;51.924;21.448;2023-03-23T03:51:24;4.28;;;3.25;;
45356;SDS011;31092;51.924;21.448;2023-03-23T03:53:51;7.65;;;4.43;;
45356;SDS011;31092;51.924;21.448;2023-03-23T03:56:17;9.07;;;5.20;;
45356;SDS011;31092;51.924;21.448;2023-03-23T03:58:43;5.85;;;3.47;;
45356;SDS011;31092;51.924;21.448;2023-03-23T04:01:09;8.05;;;4.60;;
45356;SDS011;31092;51.924;21.448;2023-03-23T04:03:35;6.25;;;4.05;;
45356;SDS011;31092;51.924;21.448;2023-03-23T04:06:01;10.30;;;4.90;;
45356;SDS011;31092;51.924;21.448;2023-03-23T04:08:28;13.13;;;5.60;;
45356;SDS011;31092;51.924;21.448;2023-03-23T04:10:54;12.77;;;4.40;;
45356;SDS011;31092;51.924;21.448;2023-03-23T04:13:20;7.57;;;4.32;;
45356;SDS011;31092;51.924;21.448;2023-03-23T04:15:46;7.85;;;3.80;;
45356;SDS011;31092;51.924;21.448;2023-03-23T04:18:12;9.07;;;5.15;;
45356;SDS011;31092;51.924;21.448;2023-03-23T04:20:39;7.60;;;3.75;;
45356;SDS011;31092;51.924;21.448;2023-03-23T04:23:09;5.40;;;3.77;;
45356;SDS011;31092;51.924;21.448;2023-03-23T04:25:35;13.55;;;7.18;;
45356;SDS011;31092;51.924;21.448;2023-03-23T04:28:01;9.70;;;5.15;;
45356;SDS011;31092;51.924;21.448;2023-03-23T04:30:27;7.05;;;3.78;;
45356;SDS011;31092;51.924;21.448;2023-03-23T04:32:55;15.48;;;6.38;;
45356;SDS011;31092;51.924;21.448;2023-03-23T04:35:22;7.18;;;3.95;;
45356;SDS011;31092;51.924;21.448;2023-03-23T04:37:51;6.72;;;4.30;;
45356;SDS011;31092;51.924;21.448;2023-03-23T04:40:19;15.25;;;5.63;;
45356;SDS011;31092;51.924;21.448;2023-03-23T04:42:45;9.13;;;3.95;;
45356;SDS011;31092;51.924;21.448;2023-03-23T04:45:11;7.85;;;5.32;;
45356;SDS011;31092;51.924;21.448;2023-03-23T04:47:40;11.35;;;6.13;;
45356;SDS011;31092;51.924;21.448;2023-03-23T04:50:09;12.55;;;5.10;;
45356;SDS011;31092;51.924;21.448;2023-03-23T04:52:38;7.75;;;3.25;;
45356;SDS011;31092;51.924;21.448;2023-03-23T04:55:06;7.20;;;4.05;;
45356;SDS011;31092;51.924;21.448;2023-03-23T04:57:34;11.73;;;4.75;;
45356;SDS011;31092;51.924;21.448;2023-03-23T05:00:00;13.13;;;4.85;;
45356;SDS011;31092;51.924;21.448;2023-03-23T05:02:33;8.95;;;3.03;;
45356;SDS011;31092;51.924;21.448;2023-03-23T05:05:04;26.35;;;3.63;;
45356;SDS011;31092;51.924;21.448;2023-03-23T05:07:31;6.18;;;4.25;;
45356;SDS011;31092;51.924;21.448;2023-03-23T05:09:57;7.85;;;3.90;;
45356;SDS011;31092;51.924;21.448;2023-03-23T05:12:22;7.93;;;4.40;;
45356;SDS011;31092;51.924;21.448;2023-03-23T05:14:48;11.18;;;4.93;;
45356;SDS011;31092;51.924;21.448;2023-03-23T05:17:14;10.45;;;4.65;;
45356;SDS011;31092;51.924;21.448;2023-03-23T05:19:42;8.45;;;4.05;;
45356;SDS011;31092;51.924;21.448;2023-03-23T05:22:09;8.25;;;4.13;;
45356;SDS011;31092;51.924;21.448;2023-03-23T05:24:37;7.72;;;3.92;;
45356;SDS011;31092;51.924;21.448;2023-03-23T05:27:03;8.07;;;5.00;;
45356;SDS011;31092;51.924;21.448;2023-03-23T05:29:29;9.90;;;5.00;;
45356;SDS011;31092;51.924;21.448;2023-03-23T05:31:58;5.10;;;3.67;;
45356;SDS011;31092;51.924;21.448;2023-03-23T05:34:27;14.15;;;4.15;;
45356;SDS011;31092;51.924;21.448;2023-03-23T05:36:54;7.95;;;4.32;;
45356;SDS011;31092;51.924;21.448;2023-03-23T05:39:22;12.90;;;4.93;;
45356;SDS011;31092;51.924;21.448;2023-03-23T05:41:48;10.77;;;3.97;;
45356;SDS011;31092;51.924;21.448;2023-03-23T05:44:13;13.10;;;5.30;;
45356;SDS011;31092;51.924;21.448;2023-03-23T05:46:40;8.55;;;4.55;;
45356;SDS011;31092;51.924;21.448;2023-03-23T05:49:05;7.78;;;4.32;;
45356;SDS011;31092;51.924;21.448;2023-03-23T05:51:31;18.73;;;5.88;;
45356;SDS011;31092;51.924;21.448;2023-03-23T05:53:56;7.65;;;4.25;;
45356;SDS011;31092;51.924;21.448;2023-03-23T05:56:22;12.43;;;4.75;;
45356;SDS011;31092;51.924;21.448;2023-03-23T05:58:57;10.25;;;4.68;;
45356;SDS011;31092;51.924;21.448;2023-03-23T06:01:27;9.55;;;4.93;;
45356;SDS011;31092;51.924;21.448;2023-03-23T06:03:53;12.07;;;5.13;;
45356;SDS011;31092;51.924;21.448;2023-03-23T06:06:21;12.32;;;5.03;;
45356;SDS011;31092;51.924;21.448;2023-03-23T06:08:47;11.65;;;5.80;;
45356;SDS011;31092;51.924;21.448;2023-03-23T06:11:15;9.50;;;5.15;;
45356;SDS011;31092;51.924;21.448;2023-03-23T06:13:40;10.93;;;6.68;;
45356;SDS011;31092;51.924;21.448;2023-03-23T06:16:07;12.20;;;5.63;;
45356;SDS011;31092;51.924;21.448;2023-03-23T06:18:33;7.82;;;4.15;;
45356;SDS011;31092;51.924;21.448;2023-03-23T06:21:02;5.90;;;4.18;;
45356;SDS011;31092;51.924;21.448;2023-03-23T06:23:28;6.90;;;4.20;;
45356;SDS011;31092;51.924;21.448;2023-03-23T06:25:54;10.50;;;4.75;;
45356;SDS011;31092;51.924;21.448;2023-03-23T06:28:22;11.57;;;4.40;;
45356;SDS011;31092;51.924;21.448;2023-03-23T06:30:47;6.38;;;4.88;;
45356;SDS011;31092;51.924;21.448;2023-03-23T06:33:13;8.38;;;4.43;;
45356;SDS011;31092;51.924;21.448;2023-03-23T06:35:38;9.05;;;4.05;;
45356;SDS011;31092;51.924;21.448;2023-03-23T06:38:04;6.78;;;4.78;;
45356;SDS011;31092;51.924;21.448;2023-03-23T06:40:30;14.25;;;4.97;;
45356;SDS011;31092;51.924;21.448;2023-03-23T06:42:58;10.45;;;4.53;;
45356;SDS011;31092;51.924;21.448;2023-03-23T06:45:26;6.13;;;4.18;;
45356;SDS011;31092;51.924;21.448;2023-03-23T06:47:52;6.20;;;4.22;;
45356;SDS011;31092;51.924;21.448;2023-03-23T06:50:17;7.75;;;5.20;;
45356;SDS011;31092;51.924;21.448;2023-03-23T06:52:46;9.90;;;4.47;;
45356;SDS011;31092;51.924;21.448;2023-03-23T06:55:13;12.00;;;5.68;;
45356;SDS011;31092;51.924;21.448;2023-03-23T06:57:40;5.05;;;3.47;;
45356;SDS011;31092;51.924;21.448;2023-03-23T07:00:06;4.28;;;3.60;;
45356;SDS011;31092;51.924;21.448;2023-03-23T07:02:41;6.43;;;3.67;;
45356;SDS011;31092;51.924;21.448;2023-03-23T07:05:08;12.55;;;4.43;;
45356;SDS011;31092;51.924;21.448;2023-03-23T07:07:39;10.02;;;5.20;;
45356;SDS011;31092;51.924;21.448;2023-03-23T07:10:06;9.50;;;4.80;;
45356;SDS011;31092;51.924;21.448;2023-03-23T07:12:34;6.70;;;4.18;;
45356;SDS011;31092;51.924;21.448;2023-03-23T07:15:01;7.57;;;4.70;;
45356;SDS011;31092;51.924;21.448;2023-03-23T07:17:27;13.48;;;5.72;;
45356;SDS011;31092;51.924;21.448;2023-03-23T07:19:53;6.07;;;4.07;;
45356;SDS011;31092;51.924;21.448;2023-03-23T07:22:19;13.20;;;5.03;;
45356;SDS011;31092;51.924;21.448;2023-03-23T07:24:45;7.20;;;4.47;;
45356;SDS011;31092;51.924;21.448;2023-03-23T07:27:11;5.22;;;3.83;;
45356;SDS011;31092;51.924;21.448;2023-03-23T07:29:37;10.70;;;4.90;;
45356;SDS011;31092;51.924;21.448;2023-03-23T07:32:04;5.82;;;4.20;;
45356;SDS011;31092;51.924;21.448;2023-03-23T07:34:30;7.15;;;3.33;;
45356;SDS011;31092;51.924;21.448;2023-03-23T07:36:57;8.75;;;5.60;;
45356;SDS011;31092;51.924;21.448;2023-03-23T07:39:23;6.13;;;4.93;;
45356;SDS011;31092;51.924;21.448;2023-03-23T07:41:50;5.18;;;3.67;;
45356;SDS011;31092;51.924;21.448;2023-03-23T07:44:16;7.15;;;4.45;;
45356;SDS011;31092;51.924;21.448;2023-03-23T07:46:42;8.70;;;5.00;;
45356;SDS011;31092;51.924;21.448;2023-03-23T07:49:08;7.78;;;4.45;;
45356;SDS011;31092;51.924;21.448;2023-03-23T07:51:35;8.15;;;3.95;;
45356;SDS011;31092;51.924;21.448;2023-03-23T07:54:03;10.25;;;3.80;;
45356;SDS011;31092;51.924;21.448;2023-03-23T07:56:29;4.75;;;3.30;;
45356;SDS011;31092;51.924;21.448;2023-03-23T07:58:55;8.40;;;4.20;;
45356;SDS011;31092;51.924;21.448;2023-03-23T08:01:21;9.52;;;3.85;;
45356;SDS011;31092;51.924;21.448;2023-03-23T08:03:49;6.57;;;4.20;;
45356;SDS011;31092;51.924;21.448;2023-03-23T08:06:15;8.45;;;4.03;;
45356;SDS011;31092;51.924;21.448;2023-03-23T08:08:41;7.90;;;3.58;;
45356;SDS011;31092;51.924;21.448;2023-03-23T08:11:06;7.65;;;3.75;;
45356;SDS011;31092;51.924;21.448;2023-03-23T08:13:32;6.20;;;3.72;;
45356;SDS011;31092;51.924;21.448;2023-03-23T08:15:58;5.35;;;3.30;;
45356;SDS011;31092;51.924;21.448;2023-03-23T08:18:25;9.00;;;3.88;;
45356;SDS011;31092;51.924;21.448;2023-03-23T08:20:51;7.47;;;2.88;;
45356;SDS011;31092;51.924;21.448;2023-03-23T08:23:18;6.50;;;4.45;;
45356;SDS011;31092;51.924;21.448;2023-03-23T08:25:44;5.85;;;3.40;;
45356;SDS011;31092;51.924;21.448;2023-03-23T08:28:11;6.35;;;3.33;;
45356;SDS011;31092;51.924;21.448;2023-03-23T08:30:38;3.67;;;2.97;;
45356;SDS011;31092;51.924;21.448;2023-03-23T08:33:05;6.35;;;3.50;;
45356;SDS011;31092;51.924;21.448;2023-03-23T08:35:31;5.20;;;3.70;;
45356;SDS011;31092;51.924;21.448;2023-03-23T08:37:56;4.43;;;2.95;;
45356;SDS011;31092;51.924;21.448;2023-03-23T08:40:22;4.25;;;2.92;;
45356;SDS011;31092;51.924;21.448;2023-03-23T08:42:50;5.18;;;3.13;;
45356;SDS011;31092;51.924;21.448;2023-03-23T08:45:18;4.50;;;2.78;;
45356;SDS011;31092;51.924;21.448;2023-03-23T08:47:45;5.25;;;3.25;;
45356;SDS011;31092;51.924;21.448;2023-03-23T08:50:16;6.32;;;4.60;;
45356;SDS011;31092;51.924;21.448;2023-03-23T08:52:46;5.68;;;3.92;;
45356;SDS011;31092;51.924;21.448;2023-03-23T08:55:12;10.07;;;3.15;;
45356;SDS011;31092;51.924;21.448;2023-03-23T08:57:40;8.02;;;4.05;;
45356;SDS011;31092;51.924;21.448;2023-03-23T09:00:08;3.53;;;2.97;;
45356;SDS011;31092;51.924;21.448;2023-03-23T09:02:47;3.28;;;2.97;;
45356;SDS011;31092;51.924;21.448;2023-03-23T09:05:14;5.07;;;3.30;;
45356;SDS011;31092;51.924;21.448;2023-03-23T09:07:42;5.72;;;3.10;;
45356;SDS011;31092;51.924;21.448;2023-03-23T09:10:10;4.28;;;2.95;;
45356;SDS011;31092;51.924;21.448;2023-03-23T09:12:37;4.47;;;3.05;;
45356;SDS011;31092;51.924;21.448;2023-03-23T09:15:03;3.42;;;2.72;;
45356;SDS011;31092;51.924;21.448;2023-03-23T09:17:30;3.13;;;2.65;;
45356;SDS011;31092;51.924;21.448;2023-03-23T09:19:56;4.65;;;3.20;;
45356;SDS011;31092;51.924;21.448;2023-03-23T09:22:21;6.65;;;3.13;;
45356;SDS011;31092;51.924;21.448;2023-03-23T09:24:48;3.85;;;2.63;;
45356;SDS011;31092;51.924;21.448;2023-03-23T09:27:15;4.35;;;3.00;;
45356;SDS011;31092;51.924;21.448;2023-03-23T09:29:41;4.70;;;2.92;;
45356;SDS011;31092;51.924;21.448;2023-03-23T09:32:06;5.45;;;3.40;;
45356;SDS011;31092;51.924;21.448;2023-03-23T09:34:33;2.67;;;2.47;;
45356;SDS011;31092;51.924;21.448;2023-03-23T09:37:01;15.85;;;7.57;;
45356;SDS011;31092;51.924;21.448;2023-03-23T09:39:29;7.45;;;4.55;;
45356;SDS011;31092;51.924;21.448;2023-03-23T09:49:59;4.18;;;3.22;;
45356;SDS011;31092;51.924;21.448;2023-03-23T09:52:54;3.00;;;2.45;;
45356;SDS011;31092;51.924;21.448;2023-03-23T09:55:23;9.38;;;3.42;;
45356;SDS011;31092;51.924;21.448;2023-03-23T09:58:02;4.35;;;2.75;;
45356;SDS011;31092;51.924;21.448;2023-03-23T10:00:59;8.20;;;2.92;;
45356;SDS011;31092;51.924;21.448;2023-03-23T10:03:31;3.17;;;2.50;;
45356;SDS011;31092;51.924;21.448;2023-03-23T10:06:02;4.90;;;2.58;;
45356;SDS011;31092;51.924;21.448;2023-03-23T10:08:32;3.83;;;3.00;;
45356;SDS011;31092;51.924;21.448;2023-03-23T10:17:26;2.85;;;1.92;;
45356;SDS011;31092;51.924;21.448;2023-03-23T10:22:17;4.13;;;3.03;;
45356;SDS011;31092;51.924;21.448;2023-03-23T10:24:50;5.05;;;2.10;;
45356;SDS011;31092;51.924;21.448;2023-03-23T10:30:31;6.95;;;2.17;;
45356;SDS011;31092;51.924;21.448;2023-03-23T10:33:04;1.95;;;1.70;;
45356;SDS011;31092;51.924;21.448;2023-03-23T10:35:38;2.42;;;2.17;;
45356;SDS011;31092;51.924;21.448;2023-03-23T10:38:14;2.10;;;1.98;;
45356;SDS011;31092;51.924;21.448;2023-03-23T10:40:48;3.75;;;1.38;;
45356;SDS011;31092;51.924;21.448;2023-03-23T10:43:18;3.63;;;2.58;;
45356;SDS011;31092;51.924;21.448;2023-03-23T10:45:44;3.13;;;2.15;;
45356;SDS011;31092;51.924;21.448;2023-03-23T10:50:43;2.35;;;1.92;;
45356;SDS011;31092;51.924;21.448;2023-03-23T10:53:19;2.05;;;1.95;;
45356;SDS011;31092;51.924;21.448;2023-03-23T10:55:53;2.83;;;2.30;;
45356;SDS011;31092;51.924;21.448;2023-03-23T10:58:33;2.72;;;1.55;;
45356;SDS011;31092;51.924;21.448;2023-03-23T11:01:00;3.17;;;2.58;;
45356;SDS011;31092;51.924;21.448;2023-03-23T11:03:39;3.85;;;1.92;;
45356;SDS011;31092;51.924;21.448;2023-03-23T11:06:11;2.45;;;1.98;;
45356;SDS011;31092;51.924;21.448;2023-03-23T11:08:51;1.70;;;1.60;;
45356;SDS011;31092;51.924;21.448;2023-03-23T11:11:20;2.25;;;1.92;;
45356;SDS011;31092;51.924;21.448;2023-03-23T11:13:55;2.65;;;1.83;;
45356;SDS011;31092;51.924;21.448;2023-03-23T11:18:56;3.10;;;1.55;;
45356;SDS011;31092;51.924;21.448;2023-03-23T11:21:23;1.70;;;1.60;;
45356;SDS011;31092;51.924;21.448;2023-03-23T11:23:55;1.58;;;1.40;;
45356;SDS011;31092;51.924;21.448;2023-03-23T11:28:58;2.42;;;1.80;;
45356;SDS011;31092;51.924;21.448;2023-03-23T11:31:32;3.22;;;1.70;;
45356;SDS011;31092;51.924;21.448;2023-03-23T11:34:03;1.20;;;1.10;;
45356;SDS011;31092;51.924;21.448;2023-03-23T11:36:36;1.48;;;1.23;;
45356;SDS011;31092;51.924;21.448;2023-03-23T11:42:00;1.55;;;1.45;;
45356;SDS011;31092;51.924;21.448;2023-03-23T11:44:40;2.60;;;1.23;;
45356;SDS011;31092;51.924;21.448;2023-03-23T11:50:08;1.58;;;0.98;;
45356;SDS011;31092;51.924;21.448;2023-03-23T11:52:44;4.93;;;1.90;;
45356;SDS011;31092;51.924;21.448;2023-03-23T11:55:30;2.75;;;1.33;;
45356;SDS011;31092;51.924;21.448;2023-03-23T11:58:13;2.15;;;1.40;;
45356;SDS011;31092;51.924;21.448;2023-03-23T12:00:57;2.90;;;1.20;;
45356;SDS011;31092;51.924;21.448;2023-03-23T12:03:23;1.23;;;1.13;;
45356;SDS011;31092;51.924;21.448;2023-03-23T12:06:12;1.30;;;1.10;;
45356;SDS011;31092;51.924;21.448;2023-03-23T12:11:21;1.77;;;1.58;;
45356;SDS011;31092;51.924;21.448;2023-03-23T12:14:11;2.42;;;1.75;;
45356;SDS011;31092;51.924;21.448;2023-03-23T12:17:12;1.40;;;1.10;;
45356;SDS011;31092;51.924;21.448;2023-03-23T12:19:42;4.00;;;1.00;;
45356;SDS011;31092;51.924;21.448;2023-03-23T12:22:29;2.13;;;1.20;;
45356;SDS011;31092;51.924;21.448;2023-03-23T12:27:37;2.05;;;1.50;;
45356;SDS011;31092;51.924;21.448;2023-03-23T12:41:27;2.22;;;1.60;;
45356;SDS011;31092;51.924;21.448;2023-03-23T12:44:09;1.08;;;1.00;;
45356;SDS011;31092;51.924;21.448;2023-03-23T12:46:51;2.58;;;1.23;;
45356;SDS011;31092;51.924;21.448;2023-03-23T12:49:40;1.50;;;1.40;;
45356;SDS011;31092;51.924;21.448;2023-03-23T12:57:34;2.88;;;1.17;;
45356;SDS011;31092;51.924;21.448;2023-03-23T13:08:23;1.45;;;0.80;;
45356;SDS011;31092;51.924;21.448;2023-03-23T13:10:56;1.88;;;0.95;;
45356;SDS011;31092;51.924;21.448;2023-03-23T13:16:11;2.40;;;1.23;;
45356;SDS011;31092;51.924;21.448;2023-03-23T13:18:49;1.63;;;1.17;;
45356;SDS011;31092;51.924;21.448;2023-03-23T13:21:41;1.42;;;0.93;;
45356;SDS011;31092;51.924;21.448;2023-03-23T13:24:29;1.80;;;1.23;;
45356;SDS011;31092;51.924;21.448;2023-03-23T13:26:59;1.60;;;1.17;;
45356;SDS011;31092;51.924;21.448;2023-03-23T13:29:26;1.15;;;1.02;;
45356;SDS011;31092;51.924;21.448;2023-03-23T13:32:39;1.15;;;1.05;;
45356;SDS011;31092;51.924;21.448;2023-03-23T13:34:46;1.63;;;1.02;;
45356;SDS011;31092;51.924;21.448;2023-03-23T13:39:49;1.40;;;1.20;;
45356;SDS011;31092;51.924;21.448;2023-03-23T13:56:16;1.90;;;1.40;;
45356;SDS011;31092;51.924;21.448;2023-03-23T13:58:50;1.40;;;1.10;;
45356;SDS011;31092;51.924;21.448;2023-03-23T14:01:42;2.45;;;1.08;;
45356;SDS011;31092;51.924;21.448;2023-03-23T14:04:17;2.13;;;1.30;;
45356;SDS011;31092;51.924;21.448;2023-03-23T14:06:48;2.05;;;1.38;;
45356;SDS011;31092;51.924;21.448;2023-03-23T14:12:02;1.92;;;1.25;;
45356;SDS011;31092;51.924;21.448;2023-03-23T14:17:28;3.22;;;1.85;;
45356;SDS011;31092;51.924;21.448;2023-03-23T14:19:56;1.38;;;1.20;;
45356;SDS011;31092;51.924;21.448;2023-03-23T14:22:27;2.67;;;1.63;;
45356;SDS011;31092;51.924;21.448;2023-03-23T14:25:15;4.93;;;1.35;;
45356;SDS011;31092;51.924;21.448;2023-03-23T14:27:42;0.85;;;0.85;;
45356;SDS011;31092;51.924;21.448;2023-03-23T14:30:21;0.93;;;0.90;;
45356;SDS011;31092;51.924;21.448;2023-03-23T14:32:50;1.90;;;0.93;;
45356;SDS011;31092;51.924;21.448;2023-03-23T14:35:25;2.97;;;1.27;;
45356;SDS011;31092;51.924;21.448;2023-03-23T14:37:54;1.13;;;1.02;;
45356;SDS011;31092;51.924;21.448;2023-03-23T14:40:20;1.60;;;0.95;;
45356;SDS011;31092;51.924;21.448;2023-03-23T14:42:46;4.15;;;1.38;;
45356;SDS011;31092;51.924;21.448;2023-03-23T14:45:16;2.10;;;1.33;;
45356;SDS011;31092;51.924;21.448;2023-03-23T14:47:59;1.15;;;1.08;;
45356;SDS011;31092;51.924;21.448;2023-03-23T14:50:28;2.13;;;1.98;;
45356;SDS011;31092;51.924;21.448;2023-03-23T14:53:09;2.53;;;1.17;;
45356;SDS011;31092;51.924;21.448;2023-03-23T14:55:41;2.03;;;1.30;;
45356;SDS011;31092;51.924;21.448;2023-03-23T14:58:08;2.50;;;1.25;;
45356;SDS011;31092;51.924;21.448;2023-03-23T15:00:39;1.10;;;1.00;;
45356;SDS011;31092;51.924;21.448;2023-03-23T15:03:12;1.52;;;1.30;;
45356;SDS011;31092;51.924;21.448;2023-03-23T15:05:58;0.77;;;0.77;;
45356;SDS011;31092;51.924;21.448;2023-03-23T15:08:28;1.52;;;1.30;;
45356;SDS011;31092;51.924;21.448;2023-03-23T15:11:07;1.63;;;1.20;;
45356;SDS011;31092;51.924;21.448;2023-03-23T15:13:52;2.15;;;1.30;;
45356;SDS011;31092;51.924;21.448;2023-03-23T15:16:23;2.63;;;1.20;;
45356;SDS011;31092;51.924;21.448;2023-03-23T15:18:57;3.53;;;2.10;;
45356;SDS011;31092;51.924;21.448;2023-03-23T15:21:35;4.05;;;1.55;;
45356;SDS011;31092;51.924;21.448;2023-03-23T15:24:19;1.95;;;1.23;;
45356;SDS011;31092;51.924;21.448;2023-03-23T15:26:50;2.03;;;1.20;;
45356;SDS011;31092;51.924;21.448;2023-03-23T15:29:17;2.05;;;1.17;;
45356;SDS011;31092;51.924;21.448;2023-03-23T15:31:47;1.75;;;1.17;;
45356;SDS011;31092;51.924;21.448;2023-03-23T15:34:24;5.65;;;1.58;;
45356;SDS011;31092;51.924;21.448;2023-03-23T15:37:02;1.02;;;0.93;;
45356;SDS011;31092;51.924;21.448;2023-03-23T15:39:30;1.02;;;0.90;;
45356;SDS011;31092;51.924;21.448;2023-03-23T15:41:57;0.98;;;0.90;;
45356;SDS011;31092;51.924;21.448;2023-03-23T15:44:28;1.35;;;1.20;;
45356;SDS011;31092;51.924;21.448;2023-03-23T15:47:33;2.97;;;1.10;;
45356;SDS011;31092;51.924;21.448;2023-03-23T15:49:58;3.50;;;1.75;;
45356;SDS011;31092;51.924;21.448;2023-03-23T15:52:28;1.40;;;1.02;;
45356;SDS011;31092;51.924;21.448;2023-03-23T15:54:54;1.15;;;0.90;;
45356;SDS011;31092;51.924;21.448;2023-03-23T15:57:20;1.60;;;1.50;;
45356;SDS011;31092;51.924;21.448;2023-03-23T15:59:45;3.63;;;1.35;;
45356;SDS011;31092;51.924;21.448;2023-03-23T16:02:16;2.10;;;1.33;;
45356;SDS011;31092;51.924;21.448;2023-03-23T16:04:45;3.35;;;1.40;;
45356;SDS011;31092;51.924;21.448;2023-03-23T16:07:11;1.95;;;1.08;;
45356;SDS011;31092;51.924;21.448;2023-03-23T16:09:38;3.72;;;1.55;;
45356;SDS011;31092;51.924;21.448;2023-03-23T16:12:10;2.05;;;1.08;;
45356;SDS011;31092;51.924;21.448;2023-03-23T16:14:40;1.50;;;1.42;;
45356;SDS011;31092;51.924;21.448;2023-03-23T16:17:07;3.15;;;2.08;;
45356;SDS011;31092;51.924;21.448;2023-03-23T16:19:37;2.03;;;1.40;;
45356;SDS011;31092;51.924;21.448;2023-03-23T16:22:03;1.50;;;1.20;;
45356;SDS011;31092;51.924;21.448;2023-03-23T16:24:29;3.08;;;1.88;;
45356;SDS011;31092;51.924;21.448;2023-03-23T16:26:54;1.58;;;1.20;;
45356;SDS011;31092;51.924;21.448;2023-03-23T16:29:20;1.77;;;1.67;;
45356;SDS011;31092;51.924;21.448;2023-03-23T16:31:45;3.75;;;1.50;;
45356;SDS011;31092;51.924;21.448;2023-03-23T16:34:11;1.58;;;1.30;;
45356;SDS011;31092;51.924;21.448;2023-03-23T16:36:36;1.88;;;1.42;;
45356;SDS011;31092;51.924;21.448;2023-03-23T16:39:02;1.77;;;1.58;;
45356;SDS011;31092;51.924;21.448;2023-03-23T16:41:28;1.05;;;0.90;;
45356;SDS011;31092;51.924;21.448;2023-03-23T16:43:54;1.23;;;0.90;;
45356;SDS011;31092;51.924;21.448;2023-03-23T16:46:20;2.72;;;1.38;;